Time;durP1;ratioP1;P1;durP2;ratioP2;P2;SDS_P1;SDS_P2;PMS_P1;PMS_P2;Temp;Humidity;BMP_temperature;BMP_pressure;BME280_temperature;BME280_humidity;BME280_pressure;Samples;Min_cycle;Max_cycle;Signal;HPM_P1;HPM_P2
2021/12/13 00:00:58;;;;;;;1.17;1.08;;;;;;;2.78;75.93;96306.81;5093601;28;20028;-65
2021/12/13 00:03:39;;;;;;;1.13;1.02;;;;;;;2.82;75.48;96307.59;5093517;28;20020;-65
2021/12/13 00:06:15;;;;;;;1.10;1.00;;;;;;;2.81;75.45;96316.25;5093392;28;20142;-66
2021/12/13 00:08:45;;;;;;;1.15;1.00;;;;;;;2.86;75.32;96317.03;5093435;28;20449;-71
2021/12/13 00:11:21;;;;;;;0.90;0.90;;;;;;;2.80;75.80;96318.84;5093360;28;20480;-64
2021/12/13 00:13:51;;;;;;;1.10;1.00;;;;;;;2.85;75.27;96317.03;5093427;28;20462;-65
2021/12/13 00:16:46;;;;;;;1.05;0.95;;;;;;;2.84;75.32;96323.97;5093479;28;20031;-65
2021/12/13 00:19:21;;;;;;;4.72;1.08;;;;;;;2.92;75.59;96328.19;5093255;28;20036;-67
2021/12/13 00:22:02;;;;;;;1.02;1.02;;;;;;;2.83;75.54;96332.56;5093161;28;20162;-64
2021/12/13 00:24:39;;;;;;;0.82;0.82;;;;;;;2.85;76.51;96328.25;5092113;28;20039;-68
2021/12/13 00:27:09;;;;;;;1.25;1.15;;;;;;;2.94;74.99;96332.47;5093414;28;20484;-66
2021/12/13 00:29:59;;;;;;;3.83;1.30;;;;;;;2.96;74.72;96330.72;5093258;28;20071;-68
2021/12/13 00:32:56;;;;;;;3.65;1.20;;;;;;;2.97;75.24;96340.19;5093172;28;20253;-67
2021/12/13 00:35:25;;;;;;;1.10;1.00;;;;;;;2.90;75.24;96341.13;5066295;28;20508;-68
2021/12/13 00:37:57;;;;;;;1.27;1.17;;;;;;;2.92;75.04;96338.53;5091981;28;20550;-64
2021/12/13 00:40:28;;;;;;;1.10;1.00;;;;;;;2.88;75.22;96333.38;5093204;28;20108;-67
2021/12/13 00:43:09;;;;;;;1.98;1.52;;;;;;;2.82;74.76;96333.44;5093157;28;20035;-65
2021/12/13 00:45:47;;;;;;;1.02;1.02;;;;;;;2.83;75.35;96334.31;5092935;28;20405;-70
2021/12/13 00:48:13;;;;;;;1.30;1.20;;;;;;;2.86;74.22;96342.88;5093125;28;20036;-68
2021/12/13 00:50:47;;;;;;;1.25;1.10;;;;;;;2.85;74.43;96343.75;5093027;28;20024;-66
2021/12/13 00:53:19;;;;;;;1.40;1.30;;;;;;;2.84;74.63;96338.59;5092928;28;20051;-64
2021/12/13 00:55:46;;;;;;;1.65;1.10;;;;;;;2.72;74.29;96348.19;5093039;28;20047;-68
2021/12/13 00:58:16;;;;;;;1.60;1.50;;;;;;;2.72;75.55;96344.75;5092884;28;20209;-68
2021/12/13 01:00:57;;;;;;;1.35;1.25;;;;;;;2.72;74.93;96342.16;5092928;28;20359;-69
2021/12/13 01:03:28;;;;;;;;;;;;;;;2.69;74.90;96332.72;5093338;28;20590;-66
2021/12/13 01:05:53;;;;;;;2.03;1.50;;;;;;;2.66;75.69;96337.91;5092961;28;19920;-65
2021/12/13 01:08:51;;;;;;;2.53;1.65;;;;;;;2.62;75.89;96331.91;5092779;28;20024;-66
2021/12/13 01:11:20;;;;;;;1.65;1.45;;;;;;;2.55;75.47;96335.44;5087130;28;20508;-64
2021/12/13 01:14:30;;;;;;;1.67;1.52;;;;;;;2.57;76.19;96333.69;5092822;28;20088;-69
2021/12/13 01:17:13;;;;;;;2.83;1.83;;;;;;;2.58;75.89;96335.41;5077162;28;20036;-64
2021/12/13 01:19:50;;;;;;;1.92;1.70;;;;;;;2.58;75.44;96334.53;5092632;28;20036;-69
2021/12/13 01:27:43;;;;;;;2.83;1.95;;;;;;;2.52;75.54;96326.00;5092660;28;20028;-68
2021/12/13 01:30:17;;;;;;;3.88;1.60;;;;;;;2.49;76.18;96322.56;5092642;28;20024;-64
2021/12/13 01:32:46;;;;;;;1.63;1.52;;;;;;;2.46;75.92;96310.56;5092670;28;20474;-67
2021/12/13 01:35:18;;;;;;;1.52;1.42;;;;;;;2.51;76.42;96316.53;5094348;28;20062;-65
2021/12/13 01:37:51;;;;;;;3.47;1.98;;;;;;;2.49;75.97;96317.41;5096263;28;20031;-69
2021/12/13 01:40:19;;;;;;;3.17;2.55;;;;;;;2.39;75.89;96308.91;5096311;28;20036;-64
2021/12/13 01:42:44;;;;;;;2.92;1.95;;;;;;;2.38;76.09;96309.78;5096066;28;20084;-68
2021/12/13 01:45:13;;;;;;;1.83;1.73;;;;;;;2.43;75.57;96313.16;5096001;28;20056;-65
2021/12/13 01:47:45;;;;;;;3.33;2.25;;;;;;;2.43;75.46;96308.00;5096133;28;20028;-70
2021/12/13 01:50:28;;;;;;;2.72;1.50;;;;;;;2.44;75.63;96314.84;5096220;28;20566;-70
2021/12/13 01:52:54;;;;;;;2.72;2.22;;;;;;;2.42;75.54;96316.63;5096119;28;20032;-68
2021/12/13 01:55:25;;;;;;;2.70;2.28;;;;;;;2.32;75.73;96304.66;5095866;28;20039;-66
2021/12/13 01:58:26;;;;;;;2.33;2.00;;;;;;;2.35;75.56;96309.81;5095863;28;20419;-68
2021/12/13 02:01:10;;;;;;;2.30;2.10;;;;;;;2.26;75.36;96308.16;5095812;28;20035;-71
2021/12/13 02:03:41;;;;;;;2.28;2.00;;;;;;;2.31;75.27;96298.63;5095780;28;20028;-65
2021/12/13 02:06:07;;;;;;;2.33;2.13;;;;;;;2.37;75.20;96295.13;5095551;28;20397;-65
2021/12/13 02:08:33;;;;;;;3.38;2.08;;;;;;;2.38;75.12;96289.97;5095838;28;20032;-70
2021/12/13 02:10:59;;;;;;;2.00;1.90;;;;;;;2.40;74.86;96292.53;5095597;28;20028;-65
2021/12/13 02:13:48;;;;;;;1.90;1.60;;;;;;;2.39;74.71;96290.81;5095614;28;20023;-66
2021/12/13 02:19:00;;;;;;;3.60;2.10;;;;;;;2.37;74.29;96287.38;5095778;28;20096;-70
2021/12/13 02:21:33;;;;;;;4.28;2.10;;;;;;;2.36;74.49;96288.28;5095203;28;20055;-68
2021/12/13 02:24:11;;;;;;;2.67;2.00;;;;;;;2.30;74.27;96301.22;5095411;28;20461;-67
2021/12/13 02:26:43;;;;;;;1.80;1.70;;;;;;;2.34;74.96;96302.91;5095252;28;20050;-65
2021/12/13 02:29:30;;;;;;;2.58;1.80;;;;;;;2.32;73.99;96302.91;5095247;28;20028;-64
2021/12/13 02:31:59;;;;;;;2.40;1.60;;;;;;;2.26;73.98;96303.00;5095298;28;20442;-66
2021/12/13 02:34:29;;;;;;;2.03;1.73;;;;;;;2.27;74.36;96310.72;5095163;28;20020;-66
2021/12/13 02:36:55;;;;;;;2.03;1.83;;;;;;;2.34;74.14;96313.22;5095191;28;20458;-68
2021/12/13 02:39:25;;;;;;;3.78;2.30;;;;;;;2.40;74.09;96314.06;5095035;28;20020;-69
2021/12/13 02:41:52;;;;;;;1.83;1.58;;;;;;;2.40;73.54;96318.34;5095026;28;20052;-64
2021/12/13 02:44:23;;;;;;;2.08;1.90;;;;;;;2.41;73.99;96322.66;5094847;28;20020;-70
2021/12/13 02:46:50;;;;;;;4.75;2.10;;;;;;;2.48;73.88;96326.03;5094716;28;20036;-66
2021/12/13 02:49:18;;;;;;;2.47;1.80;;;;;;;2.45;74.10;96328.63;5094835;28;20028;-65
2021/12/13 02:51:49;;;;;;;2.20;2.00;;;;;;;2.49;74.26;96333.75;5094873;28;20020;-67
2021/12/13 02:54:19;;;;;;;2.95;1.85;;;;;;;2.54;73.86;96344.06;5094827;28;20031;-70
2021/12/13 02:56:50;;;;;;;2.03;1.58;;;;;;;2.55;73.58;96340.59;5094791;28;20058;-66
2021/12/13 02:59:18;;;;;;;2.85;2.10;;;;;;;2.57;73.76;96335.41;5094698;28;20024;-68
2021/12/13 03:02:05;;;;;;;3.70;2.22;;;;;;;2.56;73.86;96336.28;5094729;28;20477;-67
2021/12/13 03:04:31;;;;;;;2.15;1.95;;;;;;;2.60;74.42;96343.13;5094660;28;20113;-69
2021/12/13 03:07:19;;;;;;;2.38;2.08;;;;;;;2.57;73.60;96348.34;5094447;28;20169;-66
2021/12/13 03:09:49;;;;;;;2.50;2.15;;;;;;;2.59;73.76;96341.44;5092813;28;20379;-66
2021/12/13 03:12:17;;;;;;;2.13;1.50;;;;;;;2.58;73.91;96335.41;5094451;28;20028;-67
2021/12/13 03:14:49;;;;;;;2.05;1.85;;;;;;;2.45;73.83;96337.25;5094441;28;20107;-69
2021/12/13 03:17:16;;;;;;;4.13;2.13;;;;;;;2.40;74.78;96339.00;5094331;28;20028;-67
2021/12/13 03:19:42;;;;;;;3.30;2.40;;;;;;;2.41;74.36;96330.41;5094147;28;20028;-68
2021/12/13 03:22:07;;;;;;;2.55;1.83;;;;;;;2.42;74.30;96339.84;5094044;28;20402;-64
2021/12/13 03:24:36;;;;;;;1.60;1.50;;;;;;;2.42;73.69;96346.75;5094298;28;20050;-68
2021/12/13 03:27:04;;;;;;;2.22;1.52;;;;;;;2.33;73.40;96351.13;5094086;28;20038;-69
2021/12/13 03:29:54;;;;;;;1.88;1.77;;;;;;;2.31;73.71;96349.41;5094109;28;20381;-65
2021/12/13 03:32:21;;;;;;;2.33;1.80;;;;;;;2.33;73.74;96338.22;5093993;28;20023;-69
2021/12/13 03:35:11;;;;;;;2.88;1.58;;;;;;;2.32;72.90;96354.56;5093907;28;20032;-68
2021/12/13 03:37:38;;;;;;;1.83;1.52;;;;;;;2.28;73.25;96355.47;5094231;28;20473;-67
2021/12/13 03:40:16;;;;;;;1.83;1.40;;;;;;;2.24;72.16;96353.78;5092951;28;20032;-68
2021/12/13 03:42:48;;;;;;;1.90;1.52;;;;;;;2.21;72.26;96348.63;5093889;28;20407;-70
2021/12/13 03:45:29;;;;;;;2.28;1.50;;;;;;;2.20;72.59;96349.50;5093753;28;20024;-70
2021/12/13 03:48:01;;;;;;;2.17;1.60;;;;;;;2.19;73.33;96366.72;5093891;28;20036;-68
2021/12/13 03:50:31;;;;;;;1.65;1.55;;;;;;;2.14;73.22;96355.59;5093808;28;20073;-69
2021/12/13 03:53:00;;;;;;;1.70;1.30;;;;;;;2.17;72.36;96346.94;5093794;28;20035;-68
2021/12/13 03:55:28;;;;;;;2.17;1.40;;;;;;;2.13;72.62;96354.72;5093595;28;20401;-66
2021/12/13 03:58:01;;;;;;;1.40;1.30;;;;;;;2.12;72.02;96350.44;5093035;28;20016;-67
2021/12/13 04:00:31;;;;;;;2.22;1.40;;;;;;;2.08;71.60;96353.03;5093614;28;20040;-68
2021/12/13 04:02:59;;;;;;;2.53;1.40;;;;;;;2.11;71.91;96353.03;5093632;28;20048;-65
2021/12/13 04:05:28;;;;;;;1.95;1.33;;;;;;;2.07;71.86;96354.75;5093335;28;20039;-68
2021/12/13 04:07:58;;;;;;;1.20;1.10;;;;;;;2.12;71.49;96357.31;5093441;28;20397;-68
2021/12/13 04:10:31;;;;;;;1.55;1.30;;;;;;;2.09;72.13;96358.19;5093531;28;20048;-66
2021/12/13 04:13:00;;;;;;;2.65;1.50;;;;;;;2.09;72.11;96352.16;5093523;28;20416;-69
2021/12/13 04:15:34;;;;;;;1.60;1.50;;;;;;;2.08;72.28;96361.63;5093286;28;20028;-66
2021/12/13 04:18:26;;;;;;;1.17;1.08;;;;;;;2.08;72.33;96363.34;5093308;28;20090;-68
2021/12/13 04:20:58;;;;;;;1.98;1.60;;;;;;;2.10;71.72;96357.31;5093057;28;20131;-67
2021/12/13 04:23:27;;;;;;;2.72;1.35;;;;;;;2.10;71.90;96364.19;5093308;28;20062;-68
2021/12/13 04:25:53;;;;;;;4.97;1.67;;;;;;;2.10;72.11;96362.47;5093166;28;20131;-66
2021/12/13 04:28:25;;;;;;;1.80;1.60;;;;;;;2.13;72.18;96364.16;5093224;28;20477;-68
2021/12/13 04:30:57;;;;;;;3.58;1.30;;;;;;;2.17;71.86;96368.47;5093279;28;20024;-65
2021/12/13 04:33:26;;;;;;;1.48;1.38;;;;;;;2.21;71.29;96364.97;5093087;28;20024;-69
2021/12/13 04:35:54;;;;;;;1.55;1.20;;;;;;;2.24;71.90;96371.84;5093120;28;20032;-66
2021/12/13 04:38:25;;;;;;;2.40;1.77;;;;;;;2.22;71.96;96366.69;5093197;28;20025;-67
2021/12/13 04:40:53;;;;;;;1.50;1.40;;;;;;;2.19;71.74;96373.59;5093097;28;20137;-67
2021/12/13 04:43:20;;;;;;;1.50;1.40;;;;;;;2.20;71.49;96365.00;5093069;28;20370;-69
2021/12/13 04:45:52;;;;;;;2.30;1.40;;;;;;;2.13;70.95;96361.59;5093030;28;20031;-68
2021/12/13 04:48:22;;;;;;;1.50;1.40;;;;;;;2.12;71.74;96360.75;5093107;28;20107;-67
2021/12/13 04:51:15;;;;;;;2.50;1.40;;;;;;;2.13;71.30;96357.28;5093031;28;20024;-65
2021/12/13 04:53:48;;;;;;;1.70;1.48;;;;;;;2.11;71.48;96356.44;5090545;28;20280;-67
2021/12/13 04:56:20;;;;;;;1.30;1.20;;;;;;;2.10;71.56;96364.19;5093068;28;20106;-63
2021/12/13 04:58:48;;;;;;;1.38;1.25;;;;;;;2.10;71.65;96361.59;5093079;28;20032;-68
2021/12/13 05:01:16;;;;;;;3.97;1.50;;;;;;;2.10;72.07;96367.63;5093019;28;20028;-67
2021/12/13 05:03:46;;;;;;;1.27;1.10;;;;;;;2.11;72.02;96359.00;5092926;28;20082;-68
2021/12/13 05:06:18;;;;;;;1.65;1.30;;;;;;;2.04;72.13;96365.09;5092882;28;20035;-66
2021/12/13 05:08:45;;;;;;;2.00;1.75;;;;;;;2.07;72.33;96370.22;5093025;28;20444;-67
2021/12/13 05:11:11;;;;;;;2.22;1.55;;;;;;;2.09;72.38;96371.09;5096146;28;20020;-65
2021/12/13 05:13:44;;;;;;;1.58;1.42;;;;;;;2.10;72.40;96374.50;5096762;28;20490;-69
2021/12/13 05:16:11;;;;;;;1.50;1.40;;;;;;;2.12;72.87;96377.94;5096709;28;20481;-68
2021/12/13 05:18:56;;;;;;;1.42;1.25;;;;;;;2.10;72.76;96370.22;5096612;28;20099;-66
2021/12/13 05:21:49;;;;;;;1.75;1.63;;;;;;;2.12;72.27;96376.25;5096379;28;20052;-68
2021/12/13 05:24:26;;;;;;;2.00;1.45;;;;;;;2.07;72.51;96366.78;5094208;28;20105;-66
2021/12/13 05:27:04;;;;;;;1.42;1.33;;;;;;;1.99;72.74;96372.03;5096457;28;20420;-66
2021/12/13 05:29:35;;;;;;;1.23;1.13;;;;;;;1.98;72.65;96370.28;5096383;28;20071;-67
2021/12/13 05:32:24;;;;;;;4.40;1.60;;;;;;;2.02;72.84;96372.84;5096331;28;20510;-66
2021/12/13 05:35:08;;;;;;;1.40;1.30;;;;;;;2.01;72.63;96388.34;5096445;28;20473;-67
2021/12/13 05:37:44;;;;;;;3.15;1.77;;;;;;;2.01;72.58;96390.91;5096343;28;20028;-66
2021/12/13 05:40:16;;;;;;;2.63;1.70;;;;;;;1.98;72.72;96388.34;5096260;28;20031;-66
2021/12/13 05:42:50;;;;;;;3.47;1.35;;;;;;;2.02;72.39;96392.66;5096289;28;20032;-65
2021/12/13 05:45:30;;;;;;;2.67;1.25;;;;;;;2.01;72.65;96380.59;5096142;28;20051;-65
2021/12/13 05:48:03;;;;;;;5.35;1.67;;;;;;;2.05;72.58;96382.31;5096124;28;20024;-69
2021/12/13 05:50:42;;;;;;;1.40;1.30;;;;;;;2.10;72.54;96383.13;5096083;28;20477;-67
2021/12/13 05:53:15;;;;;;;1.88;1.25;;;;;;;2.12;72.31;96383.13;5096028;28;20501;-67
2021/12/13 05:55:47;;;;;;;1.70;1.58;;;;;;;2.15;72.22;96388.25;5095955;28;20020;-68
2021/12/13 05:58:27;;;;;;;1.92;1.73;;;;;;;2.16;72.00;96389.97;5095803;28;20020;-66
2021/12/13 06:00:56;;;;;;;2.90;1.77;;;;;;;2.23;71.77;96385.63;5095914;28;20024;-70
2021/12/13 06:03:32;;;;;;;1.88;1.67;;;;;;;2.26;71.61;96395.94;5095744;28;20066;-68
2021/12/13 06:06:10;;;;;;;1.75;1.60;;;;;;;2.24;71.51;96393.34;5095662;28;20035;-66
2021/12/13 06:08:52;;;;;;;1.83;1.48;;;;;;;2.18;71.71;96402.84;5095678;28;20483;-65
2021/12/13 06:11:32;;;;;;;2.15;1.55;;;;;;;2.23;71.53;96404.53;5095728;28;20035;-65
2021/12/13 06:14:16;;;;;;;3.10;1.95;;;;;;;2.19;71.63;96408.00;5095647;28;20024;-65
2021/12/13 06:16:50;;;;;;;2.55;1.85;;;;;;;2.10;71.92;96410.66;5095463;28;20028;-68
2021/12/13 06:19:27;;;;;;;3.08;1.73;;;;;;;2.18;71.78;96406.31;5095467;28;20451;-70
2021/12/13 06:22:24;;;;;;;3.22;1.65;;;;;;;2.13;72.02;96406.34;5094768;28;20052;-68
2021/12/13 06:25:06;;;;;;;2.20;1.80;;;;;;;2.13;71.99;96420.94;5078991;28;20032;-68
2021/12/13 06:27:44;;;;;;;1.50;1.40;;;;;;;2.08;71.39;96428.72;5095488;28;20024;-67
2021/12/13 06:30:20;;;;;;;2.25;1.90;;;;;;;2.14;71.80;96426.09;5095387;28;20434;-68
2021/12/13 06:33:00;;;;;;;2.20;1.80;;;;;;;2.06;71.54;96422.72;5095255;28;20114;-65
2021/12/13 06:35:31;;;;;;;2.35;2.03;;;;;;;1.98;71.47;96427.94;5095324;28;20028;-68
2021/12/13 06:38:20;;;;;;;1.63;1.45;;;;;;;2.02;71.54;96421.88;5095065;28;20070;-65
2021/12/13 06:41:00;;;;;;;2.15;1.83;;;;;;;2.01;71.65;96429.63;5066162;28;20048;-65
2021/12/13 06:43:36;;;;;;;3.08;1.75;;;;;;;2.10;71.29;96431.28;5095139;28;20050;-69
2021/12/13 06:46:20;;;;;;;2.05;1.77;;;;;;;2.06;71.55;96422.72;5094858;28;20028;-69
2021/12/13 06:48:47;;;;;;;4.75;1.80;;;;;;;2.10;71.65;96431.28;5094992;28;20385;-66
2021/12/13 06:51:17;;;;;;;3.20;1.90;;;;;;;2.14;71.83;96433.00;5094828;28;20538;-69
2021/12/13 06:54:10;;;;;;;2.20;1.58;;;;;;;2.06;71.60;96434.75;5094901;28;20115;-65
2021/12/13 06:56:37;;;;;;;2.35;1.75;;;;;;;2.07;71.35;96445.06;5094759;28;20393;-64
2021/12/13 06:59:06;;;;;;;4.43;1.83;;;;;;;2.04;71.61;96444.25;5094742;28;20027;-68
2021/12/13 07:01:35;;;;;;;1.70;1.50;;;;;;;2.02;71.59;96454.59;5094733;28;20024;-66
2021/12/13 07:04:12;;;;;;;3.25;1.90;;;;;;;2.05;71.84;96456.28;5094574;28;20016;-67
2021/12/13 07:06:39;;;;;;;1.98;1.60;;;;;;;2.05;71.01;96466.59;5094448;28;20028;-66
2021/12/13 07:09:16;;;;;;;2.25;1.50;;;;;;;2.04;70.73;96460.56;5094443;28;20020;-66
2021/12/13 07:11:48;;;;;;;1.90;1.50;;;;;;;2.05;71.12;96464.91;5094571;28;20039;-65
2021/12/13 07:14:16;;;;;;;2.10;1.88;;;;;;;2.12;71.01;96476.03;5094405;28;20027;-69
2021/12/13 07:16:49;;;;;;;2.30;1.70;;;;;;;2.09;71.32;96456.25;5094520;28;20016;-68
2021/12/13 07:19:23;;;;;;;1.77;1.65;;;;;;;2.09;71.41;96461.44;5094304;28;20501;-69
2021/12/13 07:22:00;;;;;;;2.25;1.63;;;;;;;2.18;71.46;96470.84;5094069;28;20169;-71
2021/12/13 07:24:31;;;;;;;3.50;1.67;;;;;;;2.16;70.73;96467.38;5094367;28;20043;-67
2021/12/13 07:27:04;;;;;;;2.17;1.98;;;;;;;2.18;71.19;96464.81;5094103;28;20027;-71
2021/12/13 07:29:53;;;;;;;5.68;1.85;;;;;;;2.17;71.17;96473.41;5094327;28;20032;-65
2021/12/13 07:32:33;;;;;;;2.08;1.88;;;;;;;2.23;71.66;96476.81;5093291;28;21155;-71
2021/12/13 07:35:09;;;;;;;1.90;1.50;;;;;;;2.21;71.38;96481.16;5094036;28;20111;-63
2021/12/13 07:37:36;;;;;;;4.53;1.75;;;;;;;2.21;71.59;96488.88;5093973;28;20036;-67
2021/12/13 07:40:39;;;;;;;1.92;1.50;;;;;;;2.20;71.43;96489.72;5093946;28;20050;-65
2021/12/13 07:43:11;;;;;;;2.40;1.83;;;;;;;2.18;71.43;96486.31;5093844;28;20019;-69
2021/12/13 07:45:55;;;;;;;4.15;2.03;;;;;;;2.24;70.67;96488.00;5093754;28;20393;-68
2021/12/13 07:48:47;;;;;;;2.92;1.85;;;;;;;2.31;70.73;96502.59;5093847;28;20062;-65
2021/12/13 07:51:15;;;;;;;5.10;1.80;;;;;;;2.29;70.50;96499.19;5069966;28;20039;-62
2021/12/13 07:53:51;;;;;;;1.95;1.55;;;;;;;2.29;70.50;96504.34;5093695;28;20538;-68
2021/12/13 07:56:40;;;;;;;2.92;2.13;;;;;;;2.32;70.64;96508.63;5093955;28;20028;-69
2021/12/13 07:59:27;;;;;;;2.33;2.03;;;;;;;2.32;71.67;96506.03;5093752;28;20428;-70
2021/12/13 08:02:19;;;;;;;3.67;1.90;;;;;;;2.26;72.18;96515.53;5093558;28;20382;-64
2021/12/13 08:04:47;;;;;;;1.80;1.70;;;;;;;2.22;72.37;96518.13;5093601;28;20024;-67
2021/12/13 08:07:14;;;;;;;2.95;1.92;;;;;;;2.23;71.93;96517.28;5093414;28;20022;-65
2021/12/13 08:09:52;;;;;;;1.50;1.40;;;;;;;2.23;71.46;96518.13;5093440;28;20024;-69
2021/12/13 08:12:24;;;;;;;2.55;1.92;;;;;;;2.25;71.36;96518.09;5093364;28;20021;-68
2021/12/13 08:14:53;;;;;;;2.75;2.10;;;;;;;2.32;71.73;96530.13;5093308;28;20095;-68
2021/12/13 08:17:31;;;;;;;4.13;2.00;;;;;;;2.29;71.54;96527.56;5093386;28;20373;-68
2021/12/13 08:20:02;;;;;;;2.40;1.83;;;;;;;2.29;72.28;96532.75;5093326;28;20477;-64
2021/12/13 08:22:29;;;;;;;3.17;1.73;;;;;;;2.29;73.13;96531.88;5093074;28;20052;-71
2021/12/13 08:25:09;;;;;;;2.85;1.77;;;;;;;2.24;73.65;96535.34;5093116;28;20032;-65
2021/12/13 08:27:41;;;;;;;3.90;2.10;;;;;;;2.31;73.29;96531.00;5093346;28;20093;-67
2021/12/13 08:30:10;;;;;;;2.50;1.83;;;;;;;2.29;73.81;96534.44;5093229;28;20375;-68
2021/12/13 08:32:36;;;;;;;6.82;2.00;;;;;;;2.27;74.37;96540.50;5093388;28;20377;-63
2021/12/13 08:35:05;;;;;;;2.88;2.30;;;;;;;2.23;74.01;96531.03;5093119;28;20032;-68
2021/12/13 08:37:35;;;;;;;3.20;2.10;;;;;;;2.21;74.39;96539.66;5093166;28;20024;-65
2021/12/13 08:40:11;;;;;;;2.53;1.88;;;;;;;2.21;74.50;96531.91;5093204;28;20477;-62
2021/12/13 08:42:41;;;;;;;2.80;2.05;;;;;;;2.27;74.15;96531.88;5093274;28;20500;-67
2021/12/13 08:45:16;;;;;;;2.80;2.20;;;;;;;2.24;74.15;96526.72;5096611;28;20386;-69
2021/12/13 08:48:15;;;;;;;3.00;2.10;;;;;;;2.35;73.69;96529.25;5097158;28;20024;-66
2021/12/13 08:50:47;;;;;;;3.15;1.80;;;;;;;2.32;73.13;96526.69;5093156;28;20040;-68
2021/12/13 08:53:24;;;;;;;2.28;2.03;;;;;;;2.32;72.56;96521.53;5097275;28;20055;-66
2021/12/13 08:56:13;;;;;;;1.90;1.80;;;;;;;2.38;72.83;96524.09;5097132;28;20024;-65
2021/12/13 08:59:05;;;;;;;2.63;1.98;;;;;;;2.33;72.00;96525.81;5097178;28;20028;-68
2021/12/13 09:01:45;;;;;;;2.65;1.80;;;;;;;2.38;71.42;96529.25;5097018;28;20584;-69
2021/12/13 09:04:30;;;;;;;2.80;1.88;;;;;;;2.38;71.10;96531.84;5096812;28;20016;-68
2021/12/13 09:07:00;;;;;;;1.70;1.60;;;;;;;2.32;71.02;96537.84;5096801;28;20039;-66
2021/12/13 09:09:26;;;;;;;4.43;2.92;;;;;;;2.21;70.64;96527.63;5096862;28;20020;-69
2021/12/13 09:12:07;;;;;;;8.77;6.45;;;;;;;2.22;70.80;96524.16;5096805;28;20028;-65
2021/12/13 09:14:36;;;;;;;3.13;2.25;;;;;;;2.32;70.37;96529.28;5096811;28;20025;-67
2021/12/13 09:17:22;;;;;;;9.18;6.22;;;;;;;2.28;70.42;96531.00;5096645;28;20024;-69
2021/12/13 09:19:47;;;;;;;4.40;3.58;;;;;;;2.25;70.50;96523.28;5096652;28;20024;-69
2021/12/13 09:22:34;;;;;;;5.32;3.67;;;;;;;2.24;70.63;96527.59;5096403;28;20055;-66
2021/12/13 09:25:02;;;;;;;9.02;6.10;;;;;;;2.24;70.88;96527.59;5096354;28;20035;-66
2021/12/13 09:27:43;;;;;;;3.38;2.70;;;;;;;2.23;71.16;96520.69;5096421;28;20028;-69
2021/12/13 09:30:11;;;;;;;;;;;;;;;2.31;71.50;96528.41;5096943;28;20055;-63
2021/12/13 09:32:49;;;;;;;11.48;6.85;;;;;;;2.31;71.56;96527.53;5096492;28;19958;-66
2021/12/13 09:35:29;;;;;;;3.10;2.80;;;;;;;2.33;71.46;96516.34;5096308;28;20028;-70
2021/12/13 09:38:00;;;;;;;4.75;3.38;;;;;;;2.32;70.85;96524.13;5096285;28;20020;-67
2021/12/13 09:40:39;;;;;;;1.75;1.65;;;;;;;2.36;71.29;96528.38;5096340;28;20035;-65
2021/12/13 09:43:06;;;;;;;2.35;1.90;;;;;;;2.35;70.90;96531.84;5096253;28;20024;-63
2021/12/13 09:45:40;;;;;;;2.40;2.05;;;;;;;2.36;71.00;96530.97;5096136;28;20373;-65
2021/12/13 09:48:20;;;;;;;3.13;1.83;;;;;;;2.37;70.20;96528.38;5096145;28;20111;-64
2021/12/13 09:50:48;;;;;;;5.50;3.33;;;;;;;2.25;70.05;96524.13;5096052;28;20032;-66
2021/12/13 09:53:15;;;;;;;6.57;3.65;;;;;;;2.26;70.33;96517.25;5096087;28;20377;-64
2021/12/13 09:55:47;;;;;;;4.78;3.20;;;;;;;2.26;70.55;96517.25;5095021;28;20031;-63
2021/12/13 09:58:19;;;;;;;3.10;2.10;;;;;;;2.30;70.80;96508.63;5096049;28;20028;-66
2021/12/13 10:00:57;;;;;;;4.95;3.70;;;;;;;2.27;71.12;96516.38;5095908;28;20028;-66
2021/12/13 10:03:25;;;;;;;5.03;3.38;;;;;;;2.26;70.95;96520.69;5095762;28;20097;-66
2021/12/13 10:05:56;;;;;;;4.68;2.80;;;;;;;2.26;70.89;96515.53;5095603;28;20032;-67
2021/12/13 10:08:26;;;;;;;3.17;2.00;;;;;;;2.14;71.82;96513.84;5095805;28;20096;-68
2021/12/13 10:11:12;;;;;;;4.00;2.58;;;;;;;2.12;72.59;96525.94;5095739;28;20024;-67
2021/12/13 10:13:39;;;;;;;4.10;2.47;;;;;;;2.09;73.76;96530.25;5095592;28;20514;-67
2021/12/13 10:16:22;;;;;;;2.63;1.80;;;;;;;2.11;74.72;96528.53;5095561;28;20020;-64
2021/12/13 10:18:51;;;;;;;4.57;3.60;;;;;;;2.23;74.35;96528.44;5095584;28;20473;-66
2021/12/13 10:21:22;;;;;;;3.03;2.63;;;;;;;2.27;74.76;96522.41;5095349;28;20381;-68
2021/12/13 10:23:56;;;;;;;2.67;2.30;;;;;;;2.31;74.26;96519.78;5095481;28;20024;-65
2021/12/13 10:26:25;;;;;;;2.53;2.10;;;;;;;2.45;72.89;96532.63;5095364;28;20035;-67
2021/12/13 10:28:54;;;;;;;2.03;1.70;;;;;;;2.42;72.25;96523.19;5095320;28;20024;-70
2021/12/13 10:31:36;;;;;;;2.70;1.90;;;;;;;2.46;71.10;96529.19;5095271;28;20016;-66
2021/12/13 10:34:11;;;;;;;2.10;1.85;;;;;;;2.50;71.32;96524.00;5095316;28;20491;-68
2021/12/13 10:36:40;;;;;;;4.32;2.20;;;;;;;2.48;70.91;96527.47;5095149;28;20098;-66
2021/12/13 10:39:19;;;;;;;2.08;1.88;;;;;;;2.45;70.25;96525.75;5093932;28;20493;-67
2021/12/13 10:41:49;;;;;;;2.10;1.90;;;;;;;2.45;70.59;96523.19;5095241;28;20367;-69
2021/12/13 10:44:25;;;;;;;2.30;1.73;;;;;;;2.44;70.73;96523.19;5095165;28;20489;-65
2021/12/13 10:46:57;;;;;;;3.65;2.20;;;;;;;2.54;69.93;96524.84;5094893;28;20035;-68
2021/12/13 10:49:27;;;;;;;2.10;1.77;;;;;;;2.59;70.54;96522.25;5094907;28;20032;-69
2021/12/13 10:51:57;;;;;;;1.73;1.45;;;;;;;2.58;70.10;96512.75;5094741;28;20016;-67
2021/12/13 10:54:36;;;;;;;;;;;;;;;2.61;69.68;96513.59;5095298;28;20024;-65
2021/12/13 10:57:14;;;;;;;2.15;1.80;;;;;;;2.57;68.58;96518.78;5094798;28;20006;-66
2021/12/13 10:59:39;;;;;;;1.90;1.70;;;;;;;2.50;68.69;96516.25;5094636;28;20073;-63
2021/12/13 11:02:11;;;;;;;2.13;1.92;;;;;;;2.42;68.97;96504.25;5094745;28;20028;-67
2021/12/13 11:04:43;;;;;;;1.77;1.67;;;;;;;2.46;69.67;96504.22;5094628;28;20064;-68
2021/12/13 11:07:12;;;;;;;1.70;1.60;;;;;;;2.45;70.19;96505.09;5094424;28;20106;-68
2021/12/13 11:09:41;;;;;;;3.30;1.70;;;;;;;2.52;70.87;96501.59;5094579;28;20479;-68
2021/12/13 11:12:23;;;;;;;1.90;1.80;;;;;;;2.52;71.35;96504.19;5094453;28;20030;-67
2021/12/13 11:14:52;;;;;;;2.42;2.00;;;;;;;2.56;71.94;96496.41;5094471;28;20020;-66
2021/12/13 11:17:22;;;;;;;2.97;1.90;;;;;;;2.46;70.97;96496.47;5094348;28;20539;-65
2021/12/13 11:19:52;;;;;;;2.20;1.70;;;;;;;2.47;71.80;96482.69;5094443;28;20039;-70
2021/12/13 11:22:27;;;;;;;3.00;1.88;;;;;;;2.45;71.88;96470.66;5094277;28;20048;-65
2021/12/13 11:24:57;;;;;;;2.65;2.00;;;;;;;2.42;72.97;96479.28;5094286;28;20520;-68
2021/12/13 11:27:30;;;;;;;1.88;1.77;;;;;;;2.39;72.31;96479.31;5094247;28;20035;-69
2021/12/13 11:29:58;;;;;;;2.90;2.00;;;;;;;2.40;72.62;96484.47;5094114;28;20062;-66
2021/12/13 11:32:39;;;;;;;2.35;1.92;;;;;;;2.46;72.63;96480.97;5094194;28;20096;-65
2021/12/13 11:35:07;;;;;;;1.95;1.83;;;;;;;2.43;72.75;96493.91;5094101;28;20028;-66
2021/12/13 11:37:57;;;;;;;2.45;2.22;;;;;;;2.40;72.72;96489.63;5093954;28;20035;-65
2021/12/13 11:41:00;;;;;;;2.67;2.47;;;;;;;2.51;73.51;96489.56;5094081;28;20032;-64
2021/12/13 11:43:59;;;;;;;3.25;1.90;;;;;;;2.57;71.69;96490.38;5093770;28;20385;-67
2021/12/13 11:46:57;;;;;;;2.40;1.85;;;;;;;2.59;73.71;96486.06;5093790;28;20036;-64
2021/12/13 11:50:01;;;;;;;2.50;1.80;;;;;;;2.65;73.23;96483.44;5093788;28;20016;-66
2021/12/13 11:52:58;;;;;;;2.50;2.28;;;;;;;2.67;73.12;96481.69;5031549;28;20037;-65
2021/12/13 11:55:56;;;;;;;2.45;1.98;;;;;;;2.62;72.21;96480.88;5093956;28;20048;-69
2021/12/13 11:58:46;;;;;;;3.97;2.10;;;;;;;2.58;73.23;96486.91;5093804;28;20445;-66
2021/12/13 12:01:18;;;;;;;2.50;2.30;;;;;;;2.61;73.01;96487.78;5093664;28;20152;-68
2021/12/13 12:04:07;;;;;;;2.17;1.98;;;;;;;2.59;72.56;96473.16;5093616;28;20043;-67
2021/12/13 12:07:04;;;;;;;2.65;2.00;;;;;;;2.60;72.12;96474.88;5093563;28;20039;-67
2021/12/13 12:10:14;;;;;;;2.03;1.67;;;;;;;2.60;71.67;96485.19;5093524;28;20035;-67
2021/12/13 12:13:04;;;;;;;2.47;1.80;;;;;;;2.55;72.51;96484.34;5031209;28;20492;-65
2021/12/13 12:15:33;;;;;;;2.22;2.00;;;;;;;2.63;73.01;96477.44;5093428;28;20727;-65
2021/12/13 12:18:03;;;;;;;21.65;8.73;;;;;;;2.64;73.20;96482.59;5093017;28;20394;-68
2021/12/13 12:20:44;;;;;;;2.85;2.55;;;;;;;2.70;73.05;96473.06;5093135;28;20044;-66
2021/12/13 12:23:24;;;;;;;3.03;2.47;;;;;;;2.70;73.32;96476.50;5093396;28;20389;-68
2021/12/13 12:25:50;;;;;;;2.63;2.42;;;;;;;2.68;72.82;96475.66;5093176;28;20051;-70
2021/12/13 12:28:18;;;;;;;4.15;3.75;;;;;;;2.69;73.70;96477.38;5093223;28;20071;-67